Time;durP1;ratioP1;P1;durP2;ratioP2;P2;SDS_P1;SDS_P2;PMS_P1;PMS_P2;Temp;Humidity;BMP_temperature;BMP_pressure;BME280_temperature;BME280_humidity;BME280_pressure;Samples;Min_cycle;Max_cycle;Signal;HPM_P1;HPM_P2
2022/04/29 00:00:55;;;;;;;9.50;4.53;;;9.20;99.90;;;;;;5049110;28;20048;-64
2022/04/29 00:03:21;;;;;;;10.88;4.53;;;9.20;99.90;;;;;;5049308;28;20559;-64
2022/04/29 00:05:47;;;;;;;7.47;4.07;;;9.10;99.90;;;;;;5049459;28;20056;-64
2022/04/29 00:08:14;;;;;;;6.07;3.80;;;9.10;99.90;;;;;;5052289;28;20068;-66
2022/04/29 00:10:41;;;;;;;4.65;3.03;;;9.10;99.90;;;;;;5051848;28;20033;-66
2022/04/29 00:13:09;;;;;;;5.22;3.13;;;9.10;99.90;;;;;;5051994;28;20017;-64
2022/04/29 00:15:35;;;;;;;6.57;3.60;;;9.10;99.90;;;;;;5051944;28;20388;-63
2022/04/29 00:18:01;;;;;;;7.55;3.60;;;9.00;99.90;;;;;;5051897;28;20040;-66
2022/04/29 00:20:27;;;;;;;6.70;3.60;;;9.00;99.90;;;;;;5051793;28;20394;-64
2022/04/29 00:22:52;;;;;;;8.40;3.90;;;9.00;99.90;;;;;;5051713;28;20418;-66
2022/04/29 00:25:18;;;;;;;9.52;4.20;;;8.90;99.90;;;;;;5051472;28;20103;-66
2022/04/29 00:27:44;;;;;;;6.60;3.75;;;8.90;99.90;;;;;;5051753;28;20025;-64
2022/04/29 00:30:11;;;;;;;6.75;3.90;;;8.90;99.90;;;;;;5051573;28;20028;-64
2022/04/29 00:32:38;;;;;;;6.85;3.70;;;8.80;99.90;;;;;;5051837;28;20025;-64
2022/04/29 00:35:05;;;;;;;7.00;4.40;;;8.90;99.90;;;;;;5051629;28;20036;-64
2022/04/29 00:37:31;;;;;;;5.30;3.92;;;9.00;99.90;;;;;;5051254;28;20052;-64
2022/04/29 00:39:57;;;;;;;7.65;4.10;;;9.00;99.90;;;;;;5051773;28;20033;-64
2022/04/29 00:42:23;;;;;;;5.00;3.83;;;8.90;99.90;;;;;;5051232;28;20485;-64
2022/04/29 00:44:49;;;;;;;7.93;2.85;;;8.90;99.90;;;;;;5051558;28;20079;-64
2022/04/29 00:47:18;;;;;;;7.85;3.67;;;8.90;99.90;;;;;;5051527;28;20075;-64
2022/04/29 00:49:45;;;;;;;7.97;4.20;;;8.90;99.90;;;;;;5051399;28;20040;-64
2022/04/29 00:52:13;;;;;;;8.15;4.30;;;8.90;99.90;;;;;;5051424;28;20091;-64
2022/04/29 00:54:42;;;;;;;8.48;4.78;;;8.90;99.90;;;;;;5051326;28;20108;-64
2022/04/29 00:57:13;;;;;;;7.90;3.90;;;8.90;99.90;;;;;;5050860;28;20032;-64
2022/04/29 00:59:47;;;;;;;9.45;4.05;;;8.90;99.90;;;;;;5050707;28;20059;-64
2022/04/29 01:02:14;;;;;;;7.78;4.32;;;8.90;99.90;;;;;;5049783;28;20033;-64
2022/04/29 01:04:53;;;;;;;6.45;4.05;;;8.80;99.90;;;;;;5048176;28;20490;-64
2022/04/29 01:07:18;;;;;;;5.30;3.17;;;8.80;99.90;;;;;;5049562;28;20031;-64
2022/04/29 01:09:44;;;;;;;6.10;3.97;;;8.80;99.90;;;;;;5051008;28;20029;-64
2022/04/29 01:12:10;;;;;;;8.00;3.65;;;8.80;99.90;;;;;;5050544;28;20037;-64
2022/04/29 01:14:36;;;;;;;6.72;3.85;;;8.80;99.90;;;;;;5050720;28;20045;-63
2022/04/29 01:17:02;;;;;;;6.68;4.05;;;8.70;99.90;;;;;;5048945;28;20049;-64
2022/04/29 01:19:30;;;;;;;6.85;3.92;;;8.70;99.90;;;;;;5048675;28;20036;-64
2022/04/29 01:21:59;;;;;;;6.07;4.03;;;8.70;99.90;;;;;;5050739;28;20067;-65
2022/04/29 01:24:25;;;;;;;5.55;3.85;;;8.70;99.90;;;;;;5050759;28;20057;-64
2022/04/29 01:26:51;;;;;;;7.25;3.72;;;8.70;99.90;;;;;;5050424;28;20087;-64
2022/04/29 01:29:20;;;;;;;8.60;4.30;;;8.70;99.90;;;;;;5050546;28;20135;-64
2022/04/29 01:31:48;;;;;;;6.40;3.58;;;8.60;99.90;;;;;;5050752;28;20033;-64
2022/04/29 01:34:13;;;;;;;9.65;3.78;;;8.60;99.90;;;;;;5050457;28;20087;-64
2022/04/29 01:36:39;;;;;;;11.02;4.07;;;8.60;99.90;;;;;;5050716;28;20365;-64
2022/04/29 01:39:05;;;;;;;8.13;3.88;;;8.60;99.90;;;;;;5050322;28;20658;-64
2022/04/29 01:41:33;;;;;;;8.02;3.80;;;8.60;99.90;;;;;;5049915;28;20025;-64
2022/04/29 01:43:58;;;;;;;6.47;4.35;;;8.60;99.90;;;;;;5050672;28;20029;-64
2022/04/29 01:46:24;;;;;;;7.22;4.35;;;8.60;99.90;;;;;;5049863;28;20150;-64
2022/04/29 01:48:49;;;;;;;8.45;4.43;;;8.60;99.90;;;;;;5046647;28;20473;-65
2022/04/29 01:51:15;;;;;;;9.38;4.03;;;8.60;99.90;;;;;;5047194;28;20041;-64
2022/04/29 01:53:41;;;;;;;7.82;3.55;;;8.60;99.90;;;;;;5047105;28;20103;-64
2022/04/29 01:56:07;;;;;;;8.48;4.13;;;8.60;99.90;;;;;;5046609;28;20029;-64
2022/04/29 01:58:33;;;;;;;7.00;3.60;;;8.60;99.90;;;;;;5047277;28;20021;-64
2022/04/29 02:00:58;;;;;;;5.47;3.72;;;8.60;99.90;;;;;;5046717;28;20025;-64
2022/04/29 02:03:24;;;;;;;8.18;4.07;;;8.50;99.90;;;;;;5046949;28;20021;-64
2022/04/29 02:05:50;;;;;;;4.85;3.30;;;8.50;99.90;;;;;;5049668;28;20104;-64
2022/04/29 02:08:15;;;;;;;7.22;4.07;;;8.50;99.90;;;;;;5049911;28;20060;-64
2022/04/29 02:10:41;;;;;;;6.63;3.47;;;8.40;99.90;;;;;;5049429;28;20021;-64
2022/04/29 02:13:07;;;;;;;5.82;3.28;;;8.40;99.90;;;;;;5049839;28;20410;-64
2022/04/29 02:15:33;;;;;;;7.13;3.40;;;8.40;99.90;;;;;;5049935;28;20076;-64
2022/04/29 02:17:58;;;;;;;6.25;3.72;;;8.30;99.90;;;;;;5049900;28;20552;-64
2022/04/29 02:20:25;;;;;;;7.80;3.63;;;8.20;99.90;;;;;;5049817;28;20426;-64
2022/04/29 02:22:52;;;;;;;5.85;3.90;;;8.10;99.90;;;;;;5049681;28;20746;-64
2022/04/29 02:25:19;;;;;;;6.88;3.80;;;8.10;99.90;;;;;;5049813;28;20223;-64
2022/04/29 02:27:44;;;;;;;5.60;3.65;;;8.00;99.90;;;;;;5049010;28;20087;-64
2022/04/29 02:30:10;;;;;;;6.13;4.05;;;7.90;99.90;;;;;;5049581;28;20448;-64
2022/04/29 02:32:36;;;;;;;6.53;3.75;;;7.80;99.90;;;;;;5049810;28;20134;-64
2022/04/29 02:35:02;;;;;;;7.50;3.22;;;7.70;99.90;;;;;;5049824;28;20120;-64
2022/04/29 02:37:28;;;;;;;11.55;4.05;;;7.60;99.90;;;;;;5049602;28;20033;-64
2022/04/29 02:39:54;;;;;;;6.40;3.92;;;7.50;99.90;;;;;;5049400;28;20160;-64
2022/04/29 02:42:19;;;;;;;6.93;3.20;;;7.50;99.90;;;;;;5049262;28;20021;-64
2022/04/29 02:44:45;;;;;;;6.15;3.72;;;7.40;99.90;;;;;;5049584;28;20037;-64
2022/04/29 02:47:11;;;;;;;7.47;4.07;;;7.40;99.90;;;;;;5048164;28;20029;-64
2022/04/29 02:49:42;;;;;;;7.15;4.00;;;7.40;99.90;;;;;;5046681;28;20032;-64
2022/04/29 02:52:09;;;;;;;5.40;3.35;;;7.30;99.90;;;;;;5046318;28;20055;-64
2022/04/29 02:54:36;;;;;;;11.60;4.28;;;7.30;99.90;;;;;;5046370;28;20025;-64
2022/04/29 02:57:02;;;;;;;10.63;4.43;;;7.30;99.90;;;;;;5045808;28;20029;-64
2022/04/29 02:59:27;;;;;;;11.82;4.35;;;7.20;99.90;;;;;;5046350;28;20036;-64
2022/04/29 03:01:53;;;;;;;10.60;4.85;;;7.10;99.90;;;;;;5046130;28;20021;-64
2022/04/29 03:04:19;;;;;;;6.65;3.80;;;7.10;99.90;;;;;;5046510;28;20071;-64
2022/04/29 03:06:44;;;;;;;8.07;3.92;;;7.00;99.90;;;;;;5046395;28;20033;-64
2022/04/29 03:09:11;;;;;;;5.68;3.40;;;7.00;99.90;;;;;;5046282;28;20054;-64
2022/04/29 03:11:37;;;;;;;7.85;3.58;;;7.00;99.90;;;;;;5045853;28;20075;-64
2022/04/29 03:14:03;;;;;;;8.13;4.60;;;7.00;99.90;;;;;;5046111;28;20074;-64
2022/04/29 03:16:29;;;;;;;7.80;5.25;;;6.90;99.90;;;;;;5046213;28;20033;-64
2022/04/29 03:18:54;;;;;;;8.35;3.92;;;6.90;99.90;;;;;;5045998;28;20478;-64
2022/04/29 03:21:20;;;;;;;9.32;4.10;;;6.80;99.90;;;;;;5046053;28;20028;-64
2022/04/29 03:23:47;;;;;;;6.82;3.80;;;6.70;99.90;;;;;;5040958;28;20071;-64
2022/04/29 03:26:12;;;;;;;7.05;3.83;;;6.70;99.90;;;;;;5040479;28;20060;-64
2022/04/29 03:28:39;;;;;;;9.05;4.55;;;6.60;99.90;;;;;;5045993;28;20060;-64
2022/04/29 03:31:05;;;;;;;9.43;3.72;;;6.50;99.90;;;;;;5046151;28;20424;-64
2022/04/29 03:33:31;;;;;;;5.20;3.58;;;6.40;99.90;;;;;;5046196;28;20044;-64
2022/04/29 03:35:57;;;;;;;8.77;3.58;;;6.40;99.90;;;;;;5046251;28;20033;-64
2022/04/29 03:38:24;;;;;;;7.82;3.80;;;6.30;99.90;;;;;;5045549;28;20088;-64
2022/04/29 03:40:50;;;;;;;6.72;3.70;;;6.20;99.90;;;;;;5048175;28;20082;-65
2022/04/29 03:43:16;;;;;;;8.05;4.53;;;6.20;99.90;;;;;;5049210;28;20029;-64
2022/04/29 03:45:42;;;;;;;5.40;2.97;;;6.10;99.90;;;;;;5049715;28;20055;-64
2022/04/29 03:48:08;;;;;;;6.22;3.55;;;6.10;99.90;;;;;;5049644;28;20033;-64
2022/04/29 03:50:33;;;;;;;6.95;3.13;;;6.00;99.90;;;;;;5049236;28;20036;-63
2022/04/29 03:53:01;;;;;;;8.18;3.80;;;6.00;99.90;;;;;;5049339;28;20381;-64
2022/04/29 03:55:29;;;;;;;5.43;2.67;;;5.90;99.90;;;;;;5049283;28;20061;-64
2022/04/29 03:57:56;;;;;;;4.93;3.40;;;5.80;99.90;;;;;;5049024;28;20478;-64
2022/04/29 04:00:23;;;;;;;4.40;2.65;;;5.80;99.90;;;;;;5049635;28;20036;-64
2022/04/29 04:02:49;;;;;;;4.18;2.55;;;5.70;99.90;;;;;;5049492;28;20124;-64
2022/04/29 04:05:16;;;;;;;4.38;2.95;;;5.60;99.90;;;;;;5049149;28;20508;-64
2022/04/29 04:07:41;;;;;;;6.35;3.15;;;5.60;99.90;;;;;;5049237;28;20071;-64
2022/04/29 04:10:07;;;;;;;6.32;3.25;;;5.50;99.90;;;;;;5049035;28;20025;-65
2022/04/29 04:12:43;;;;;;;7.35;3.58;;;5.50;99.90;;;;;;5048593;28;20033;-64
2022/04/29 04:15:10;;;;;;;10.13;3.92;;;5.40;99.90;;;;;;5049079;28;20036;-64
2022/04/29 04:17:36;;;;;;;7.97;3.53;;;5.40;99.90;;;;;;5048903;28;20021;-64
2022/04/29 04:20:04;;;;;;;9.68;3.95;;;5.40;99.90;;;;;;5048858;28;20029;-64
2022/04/29 04:22:30;;;;;;;10.02;4.10;;;5.30;99.90;;;;;;5048709;28;20070;-64
2022/04/29 04:24:59;;;;;;;8.00;3.60;;;5.30;99.90;;;;;;5048769;28;20025;-63
2022/04/29 04:27:25;;;;;;;6.50;3.90;;;5.20;99.90;;;;;;5048862;28;20048;-64
2022/04/29 04:29:51;;;;;;;11.23;3.90;;;5.20;99.90;;;;;;5048817;28;20430;-65
2022/04/29 04:32:16;;;;;;;7.68;3.42;;;5.20;99.90;;;;;;5048355;28;20470;-64
2022/04/29 04:34:51;;;;;;;5.32;3.63;;;5.20;99.90;;;;;;5048516;28;20036;-64
2022/04/29 04:37:18;;;;;;;6.38;3.38;;;5.30;99.90;;;;;;5048546;28;20033;-64
2022/04/29 04:39:44;;;;;;;7.05;3.28;;;5.30;99.90;;;;;;5048298;28;20094;-64
2022/04/29 04:42:10;;;;;;;7.22;3.15;;;5.30;99.90;;;;;;5048030;28;20068;-64
2022/04/29 04:44:35;;;;;;;7.45;3.67;;;5.40;99.90;;;;;;5048206;28;20064;-65
2022/04/29 04:47:01;;;;;;;8.15;3.67;;;5.40;99.90;;;;;;5047109;28;20025;-64
2022/04/29 04:49:27;;;;;;;7.55;3.80;;;5.40;99.90;;;;;;5047532;28;20500;-64
2022/04/29 04:51:53;;;;;;;6.15;3.50;;;5.50;99.90;;;;;;5048005;28;20557;-64
2022/04/29 04:54:18;;;;;;;6.88;3.53;;;5.40;99.90;;;;;;5048228;28;20497;-65
2022/04/29 04:56:44;;;;;;;6.20;3.60;;;5.50;99.90;;;;;;5047507;28;20025;-65
2022/04/29 04:59:09;;;;;;;5.43;3.15;;;5.60;99.90;;;;;;5048053;28;20029;-65
2022/04/29 05:01:35;;;;;;;8.75;4.10;;;5.60;99.90;;;;;;5047845;28;20146;-64
2022/04/29 05:04:01;;;;;;;6.60;3.85;;;5.70;99.90;;;;;;5048134;28;20025;-65
2022/04/29 05:06:26;;;;;;;9.07;4.25;;;5.70;99.90;;;;;;5047952;28;20036;-64
2022/04/29 05:08:52;;;;;;;5.40;3.67;;;5.80;99.90;;;;;;5048185;28;20127;-65
2022/04/29 05:11:18;;;;;;;8.48;4.50;;;5.90;99.90;;;;;;5047476;28;20052;-65
2022/04/29 05:13:43;;;;;;;8.00;3.20;;;6.00;99.90;;;;;;5047708;28;20028;-64
2022/04/29 05:16:09;;;;;;;10.20;3.75;;;6.10;99.90;;;;;;5047773;28;20033;-65
2022/04/29 05:18:34;;;;;;;8.68;4.10;;;6.20;99.90;;;;;;5047629;28;20433;-64
2022/04/29 05:21:00;;;;;;;6.60;3.65;;;6.20;99.90;;;;;;5047651;28;20021;-64
2022/04/29 05:23:26;;;;;;;5.90;2.92;;;6.30;99.90;;;;;;5047657;28;20025;-63
2022/04/29 05:25:52;;;;;;;6.00;3.58;;;6.30;99.90;;;;;;5047354;28;20059;-64
2022/04/29 05:28:17;;;;;;;8.32;3.95;;;6.30;99.90;;;;;;5047462;28;20108;-64
2022/04/29 05:30:43;;;;;;;7.03;4.35;;;6.30;99.90;;;;;;5047424;28;20485;-64
2022/04/29 05:33:10;;;;;;;5.97;3.70;;;6.40;99.90;;;;;;5036604;28;20055;-64
2022/04/29 05:35:38;;;;;;;6.75;3.85;;;6.50;99.90;;;;;;5027454;28;20029;-64
2022/04/29 05:38:04;;;;;;;14.02;5.78;;;6.60;99.90;;;;;;5027390;28;20029;-64
2022/04/29 05:43:13;;;;;;;7.78;4.25;;;6.90;99.90;;;;;;5026950;28;20407;-63
2022/04/29 05:45:39;;;;;;;5.43;3.30;;;7.10;99.90;;;;;;5027425;28;20431;-64
2022/04/29 05:48:05;;;;;;;6.63;3.60;;;7.30;99.90;;;;;;5027183;28;20055;-64
2022/04/29 05:50:31;;;;;;;7.95;3.38;;;7.40;99.90;;;;;;5027334;28;20040;-64
2022/04/29 05:52:57;;;;;;;9.23;3.42;;;7.50;99.90;;;;;;5027116;28;20021;-65
2022/04/29 05:55:22;;;;;;;4.95;3.15;;;7.70;99.90;;;;;;5034346;28;20145;-64
2022/04/29 05:57:48;;;;;;;4.93;3.30;;;7.70;99.90;;;;;;5046509;28;20044;-64
2022/04/29 06:00:15;;;;;;;6.28;3.45;;;7.90;99.90;;;;;;5046996;28;20055;-64
2022/04/29 06:02:41;;;;;;;4.05;3.08;;;7.90;99.90;;;;;;5046340;28;20051;-64
2022/04/29 06:05:07;;;;;;;6.70;3.80;;;7.90;99.90;;;;;;5046865;28;20037;-65
2022/04/29 06:07:33;;;;;;;7.35;3.88;;;7.90;99.90;;;;;;5046707;28;20771;-64
2022/04/29 06:09:58;;;;;;;5.60;3.92;;;8.00;99.90;;;;;;5046641;28;20042;-64
2022/04/29 06:12:24;;;;;;;9.27;3.88;;;8.10;99.90;;;;;;5046222;28;20576;-64
2022/04/29 06:14:50;;;;;;;7.40;3.40;;;8.20;99.90;;;;;;5046493;28;20184;-65
2022/04/29 06:17:15;;;;;;;7.40;3.38;;;8.30;99.90;;;;;;5046781;28;20033;-65
2022/04/29 06:19:41;;;;;;;4.95;3.58;;;8.40;99.90;;;;;;5046551;28;20029;-65
2022/04/29 06:22:07;;;;;;;4.63;3.35;;;8.50;99.90;;;;;;5046529;28;20025;-65
2022/04/29 06:24:33;;;;;;;7.10;2.78;;;8.50;99.90;;;;;;5046475;28;20174;-65
2022/04/29 06:26:59;;;;;;;10.13;4.03;;;8.60;99.90;;;;;;5046438;28;20036;-64
2022/04/29 06:29:25;;;;;;;6.28;3.65;;;8.80;99.90;;;;;;5046582;28;20025;-63
2022/04/29 06:31:50;;;;;;;7.57;3.78;;;8.90;99.90;;;;;;5046374;28;20029;-64
2022/04/29 06:34:16;;;;;;;7.68;4.40;;;8.90;99.90;;;;;;5046531;28;20474;-64
2022/04/29 06:36:42;;;;;;;8.85;4.22;;;8.90;99.90;;;;;;5047086;28;20112;-63
2022/04/29 06:39:08;;;;;;;9.57;4.72;;;8.90;99.90;;;;;;5049293;28;20037;-64
2022/04/29 06:41:35;;;;;;;7.05;4.40;;;9.00;99.90;;;;;;5049058;28;20108;-65
2022/04/29 06:44:01;;;;;;;5.88;3.60;;;9.00;99.90;;;;;;5049374;28;20029;-65
2022/04/29 06:46:26;;;;;;;5.10;3.17;;;9.10;99.90;;;;;;5049398;28;20040;-64
2022/04/29 06:48:56;;;;;;;6.70;4.38;;;9.20;99.90;;;;;;5049530;28;20017;-63
2022/04/29 06:51:25;;;;;;;9.63;4.35;;;9.40;99.90;;;;;;5049344;28;20041;-66
2022/04/29 06:53:51;;;;;;;5.78;2.67;;;9.70;99.90;;;;;;5049295;28;20120;-63
2022/04/29 06:56:17;;;;;;;4.80;3.17;;;10.00;99.90;;;;;;5048101;28;20109;-66
2022/04/29 06:58:42;;;;;;;6.85;3.17;;;10.30;99.90;;;;;;5046751;28;20347;-65
2022/04/29 07:01:08;;;;;;;4.85;3.33;;;10.40;99.90;;;;;;5045834;28;20381;-64
2022/04/29 07:03:35;;;;;;;9.55;4.60;;;10.60;99.90;;;;;;5045571;28;20124;-64
2022/04/29 07:06:01;;;;;;;8.20;2.95;;;10.70;99.90;;;;;;5046261;28;20035;-64
2022/04/29 07:08:28;;;;;;;5.65;3.40;;;10.90;99.90;;;;;;5046198;28;20021;-64
2022/04/29 07:10:55;;;;;;;8.38;3.25;;;11.10;99.90;;;;;;5045748;28;20052;-63
2022/04/29 07:13:21;;;;;;;9.20;3.85;;;11.30;99.90;;;;;;5046185;28;20044;-64
2022/04/29 07:15:48;;;;;;;4.57;3.30;;;11.80;99.90;;;;;;5048387;28;20638;-64
2022/04/29 07:18:14;;;;;;;4.88;3.25;;;12.30;99.90;;;;;;5049798;28;20032;-64
2022/04/29 07:20:40;;;;;;;6.97;3.00;;;13.00;99.90;;;;;;5049745;28;20104;-65
2022/04/29 07:23:05;;;;;;;3.97;2.90;;;13.40;99.90;;;;;;5046185;28;20086;-65
2022/04/29 07:25:31;;;;;;;5.80;3.05;;;14.00;99.90;;;;;;5038566;28;20029;-65
2022/04/29 07:27:57;;;;;;;3.72;2.65;;;14.30;99.30;;;;;;5049576;28;20029;-65
2022/04/29 07:30:23;;;;;;;4.88;3.13;;;14.60;98.30;;;;;;5049880;28;20390;-66
2022/04/29 07:32:48;;;;;;;5.75;2.65;;;14.80;97.20;;;;;;5050001;28;20028;-66
2022/04/29 07:43:26;;;;;;;3.45;2.60;;;15.90;93.40;;;;;;5049493;28;20074;-65
2022/04/29 07:45:52;;;;;;;3.75;2.13;;;15.90;92.00;;;;;;5049262;28;20029;-66
2022/04/29 07:48:18;;;;;;;3.92;1.90;;;16.20;89.80;;;;;;5049579;28;20041;-67
2022/04/29 07:50:44;;;;;;;1.92;1.50;;;16.50;89.70;;;;;;5049113;28;20037;-66
2022/04/29 07:53:10;;;;;;;1.77;1.65;;;16.70;83.30;;;;;;5049339;28;20036;-67
2022/04/29 07:55:36;;;;;;;1.77;1.63;;;16.90;85.90;;;;;;5049243;28;20021;-66
2022/04/29 07:58:03;;;;;;;3.25;1.58;;;16.90;82.90;;;;;;5048549;28;20077;-66
2022/04/29 08:00:31;;;;;;;3.45;1.50;;;16.90;79.80;;;;;;5049320;28;20029;-67
2022/04/29 08:02:58;;;;;;;1.52;1.42;;;17.20;77.90;;;;;;5048600;28;20032;-67
2022/04/29 08:05:24;;;;;;;3.08;1.77;;;17.40;76.70;;;;;;5048865;28;20025;-66
2022/04/29 08:07:50;;;;;;;3.40;1.55;;;17.60;75.70;;;;;;5048695;28;20032;-66
2022/04/29 08:10:16;;;;;;;3.05;2.00;;;18.00;73.20;;;;;;5048615;28;20448;-67
2022/04/29 08:12:41;;;;;;;2.53;1.77;;;18.50;71.10;;;;;;5048998;28;20086;-66
2022/04/29 08:15:09;;;;;;;4.38;1.90;;;18.80;70.00;;;;;;5048140;28;20037;-66
2022/04/29 08:17:37;;;;;;;1.92;1.55;;;19.30;66.30;;;;;;5048872;28;20086;-66
2022/04/29 08:20:03;;;;;;;2.25;1.75;;;19.30;62.40;;;;;;5049109;28;20032;-65
2022/04/29 08:22:29;;;;;;;3.17;1.65;;;19.50;58.20;;;;;;5048762;28;20021;-62
2022/04/29 08:24:54;;;;;;;2.15;1.30;;;19.50;60.20;;;;;;5048629;28;20091;-65
2022/04/29 08:27:21;;;;;;;3.42;1.45;;;19.20;54.00;;;;;;5047817;28;20057;-64
2022/04/29 08:29:47;;;;;;;1.88;1.40;;;20.10;55.80;;;;;;5049082;28;20029;-65
2022/04/29 08:32:13;;;;;;;5.15;1.60;;;20.70;53.50;;;;;;5048398;28;20482;-67
2022/04/29 08:34:39;;;;;;;4.05;1.92;;;21.20;49.70;;;;;;5048407;28;20025;-66
2022/04/29 08:37:05;;;;;;;2.53;1.23;;;20.40;49.00;;;;;;5043934;28;20033;-61
2022/04/29 08:39:30;;;;;;;1.77;1.35;;;21.00;46.20;;;;;;5047768;28;20039;-61
2022/04/29 08:42:01;;;;;;;1.92;1.40;;;21.10;43.50;;;;;;5047786;28;20037;-63
2022/04/29 08:44:30;;;;;;;1.63;1.40;;;21.20;45.20;;;;;;5040422;28;20069;-66
2022/04/29 08:46:57;;;;;;;1.48;1.30;;;21.80;39.90;;;;;;5046948;28;20393;-67
2022/04/29 08:49:26;;;;;;;3.03;1.27;;;22.30;37.40;;;;;;5046252;28;20025;-67
2022/04/29 08:51:53;;;;;;;1.48;1.10;;;22.00;36.10;;;;;;5048325;28;20075;-66
2022/04/29 09:00:04;;;;;;;1.25;1.10;;;22.20;32.00;;;;;;5048311;28;20090;-67
2022/04/29 09:02:38;;;;;;;3.00;1.30;;;21.70;33.20;;;;;;5048310;28;20098;-67
2022/04/29 09:05:10;;;;;;;2.85;1.27;;;22.70;29.50;;;;;;5047908;28;20470;-66
2022/04/29 09:07:55;;;;;;;2.30;1.35;;;23.10;29.40;;;;;;5047789;28;20450;-66
2022/04/29 09:10:26;;;;;;;1.98;1.30;;;23.40;28.80;;;;;;5047817;28;20025;-65
2022/04/29 09:12:52;;;;;;;3.22;1.58;;;23.80;27.60;;;;;;5047510;28;20674;-65
2022/04/29 09:15:18;;;;;;;2.63;1.30;;;24.00;26.60;;;;;;5047789;28;20363;-65
2022/04/29 09:17:46;;;;;;;2.15;1.77;;;23.80;25.30;;;;;;5047631;28;20032;-65
2022/04/29 09:20:21;;;;;;;2.00;1.20;;;24.40;25.70;;;;;;5047941;28;20032;-65
2022/04/29 09:22:50;;;;;;;1.33;1.17;;;25.30;24.00;;;;;;5047646;28;20025;-65
2022/04/29 09:25:17;;;;;;;2.17;1.42;;;24.90;23.30;;;;;;5047231;28;20513;-65
2022/04/29 09:27:58;;;;;;;2.00;1.13;;;25.40;23.70;;;;;;5045905;28;20032;-66
2022/04/29 09:30:53;;;;;;;2.42;1.13;;;25.80;21.60;;;;;;5047019;28;20401;-66
2022/04/29 09:33:22;;;;;;;3.40;1.58;;;26.90;20.40;;;;;;5046093;28;20397;-65
2022/04/29 09:35:51;;;;;;;1.83;1.15;;;27.40;19.00;;;;;;5047471;28;20520;-66
2022/04/29 09:41:01;;;;;;;1.67;1.40;;;28.50;16.60;;;;;;5047304;28;20123;-66
2022/04/29 09:43:34;;;;;;;1.30;1.20;;;28.80;16.70;;;;;;5047311;28;20029;-66
2022/04/29 09:46:17;;;;;;;2.35;1.35;;;28.50;16.20;;;;;;5047713;28;20052;-63
2022/04/29 09:48:59;;;;;;;1.33;1.23;;;29.40;15.40;;;;;;5047019;28;20040;-66
2022/04/29 09:51:53;;;;;;;1.50;1.38;;;29.40;16.50;;;;;;5047378;28;20045;-67
2022/04/29 09:54:27;;;;;;;3.10;1.33;;;30.10;14.90;;;;;;5047200;28;20508;-67
2022/04/29 09:57:18;;;;;;;1.40;1.30;;;30.20;15.10;;;;;;5026916;28;20021;-66
2022/04/29 09:59:54;;;;;;;1.67;1.38;;;30.40;15.20;;;;;;5027115;28;20136;-66
2022/04/29 10:02:23;;;;;;;1.83;1.58;;;30.90;12.80;;;;;;5026978;28;20029;-66
2022/04/29 10:04:50;;;;;;;1.85;1.25;;;28.80;14.00;;;;;;5026917;28;20032;-66
2022/04/29 10:07:21;;;;;;;1.70;1.60;;;29.90;14.30;;;;;;5026973;28;20490;-67
2022/04/29 10:09:55;;;;;;;2.67;1.50;;;28.20;12.90;;;;;;5025432;28;20036;-66
2022/04/29 10:12:26;;;;;;;3.13;1.50;;;29.20;13.10;;;;;;5026597;28;20112;-66
2022/04/29 10:14:59;;;;;;;2.17;0.95;;;30.10;13.40;;;;;;5026927;28;20085;-67
2022/04/29 10:23:10;;;;;;;2.30;0.90;;;29.70;12.40;;;;;;5026900;28;20032;-67
2022/04/29 10:25:40;;;;;;;1.27;1.05;;;31.30;12.60;;;;;;5035974;28;20638;-66
2022/04/29 10:28:08;;;;;;;2.28;1.27;;;27.70;12.90;;;;;;5045193;28;20029;-65
2022/04/29 10:30:36;;;;;;;2.03;1.30;;;29.00;13.00;;;;;;5046668;28;20033;-66
2022/04/29 10:33:08;;;;;;;2.42;1.27;;;28.20;14.90;;;;;;5046880;28;20059;-66
2022/04/29 10:36:04;;;;;;;0.88;0.88;;;30.90;13.80;;;;;;5046738;28;20043;-67
2022/04/29 10:38:34;;;;;;;1.30;1.05;;;31.40;12.70;;;;;;5044622;28;20048;-68
2022/04/29 10:41:25;;;;;;;1.00;0.90;;;32.30;10.80;;;;;;5045943;28;20028;-70
2022/04/29 10:43:50;;;;;;;;;;;32.80;9.90;;;;;;5046266;28;20294;-69
2022/04/29 10:46:23;;;;;;;2.88;1.40;;;33.10;9.80;;;;;;5041467;28;20484;-68
2022/04/29 10:48:51;;;;;;;3.42;2.28;;;33.20;9.60;;;;;;5030655;28;20101;-68
2022/04/29 10:51:29;;;;;;;1.50;1.27;;;33.20;9.50;;;;;;5050976;28;20041;-67
2022/04/29 10:53:57;;;;;;;1.30;1.20;;;29.40;11.00;;;;;;5050401;28;20055;-69
2022/04/29 10:56:31;;;;;;;1.50;1.38;;;26.20;13.60;;;;;;5050112;28;20444;-66
2022/04/29 10:59:12;;;;;;;2.15;1.08;;;29.30;13.30;;;;;;5050243;28;20025;-65
2022/04/29 11:01:38;;;;;;;;;;;31.50;11.90;;;;;;5051175;28;20033;-67
2022/04/29 11:04:27;;;;;;;1.80;1.40;;;29.20;9.80;;;;;;5050428;28;19950;-68
2022/04/29 11:06:53;;;;;;;1.75;1.35;;;31.60;10.40;;;;;;5050323;28;20083;-67
2022/04/29 11:09:28;;;;;;;1.48;1.13;;;30.20;11.20;;;;;;5050345;28;20025;-67
2022/04/29 11:11:54;;;;;;;1.95;1.60;;;29.40;11.20;;;;;;5049714;28;20508;-68
2022/04/29 11:14:20;;;;;;;1.60;1.50;;;28.10;11.80;;;;;;5050190;28;20032;-68
2022/04/29 11:17:07;;;;;;;2.72;1.48;;;29.00;11.50;;;;;;5050242;28;20029;-67
2022/04/29 11:19:40;;;;;;;2.30;1.33;;;31.00;12.20;;;;;;5050175;28;20025;-67
2022/04/29 11:24:53;;;;;;;1.85;1.30;;;35.10;9.80;;;;;;5045650;28;20515;-67
2022/04/29 11:27:26;;;;;;;2.97;1.70;;;35.30;9.90;;;;;;5029764;28;20044;-68
2022/04/29 11:29:52;;;;;;;1.30;1.20;;;33.20;8.00;;;;;;5030132;28;20021;-66
2022/04/29 11:32:24;;;;;;;1.85;1.73;;;33.90;8.30;;;;;;5029805;28;20356;-67
2022/04/29 11:34:57;;;;;;;2.53;1.40;;;34.40;7.40;;;;;;5029840;28;20040;-67
2022/04/29 11:37:25;;;;;;;2.40;1.30;;;32.00;8.10;;;;;;5029708;28;20711;-67
2022/04/29 11:39:52;;;;;;;1.73;1.30;;;27.80;10.90;;;;;;5029529;28;20045;-66
2022/04/29 11:42:19;;;;;;;3.65;1.35;;;30.30;11.30;;;;;;5029154;28;20033;-66
2022/04/29 11:44:45;;;;;;;2.03;1.50;;;30.00;10.20;;;;;;5029561;28;20108;-67
2022/04/29 11:47:12;;;;;;;1.52;1.17;;;32.00;10.60;;;;;;5029596;28;20037;-66
2022/04/29 11:49:38;;;;;;;1.73;1.13;;;31.20;9.20;;;;;;5029551;28;20025;-68
2022/04/29 11:52:25;;;;;;;1.23;1.13;;;32.60;9.80;;;;;;5029193;28;20033;-67
2022/04/29 11:54:57;;;;;;;1.27;1.10;;;32.50;8.60;;;;;;5032978;28;20047;-66
2022/04/29 11:57:25;;;;;;;1.85;1.20;;;34.10;8.50;;;;;;5049190;28;20029;-65
2022/04/29 11:59:51;;;;;;;1.10;1.00;;;32.80;9.50;;;;;;5049096;28;20066;-66
2022/04/29 12:02:18;;;;;;;1.15;1.05;;;32.90;8.30;;;;;;5048510;28;20021;-67
2022/04/29 12:04:59;;;;;;;1.50;1.40;;;31.50;8.60;;;;;;5049172;28;20036;-67
2022/04/29 12:07:25;;;;;;;;;;;27.70;10.20;;;;;;5049686;28;20082;-68
2022/04/29 12:09:52;;;;;;;3.03;1.50;;;26.10;12.90;;;;;;5049295;28;19966;-67
2022/04/29 12:12:30;;;;;;;1.65;1.55;;;28.20;13.30;;;;;;5048908;28;20041;-67
2022/04/29 12:14:58;;;;;;;1.55;1.05;;;30.20;12.90;;;;;;5048904;28;20493;-66
2022/04/29 12:17:32;;;;;;;2.78;1.50;;;31.60;11.10;;;;;;5049209;28;20088;-66
2022/04/29 12:19:58;;;;;;;1.77;1.40;;;31.60;9.40;;;;;;5048946;28;20028;-67
2022/04/29 12:22:33;;;;;;;2.42;1.40;;;32.60;9.70;;;;;;5048744;28;20029;-67
2022/04/29 12:25:26;;;;;;;1.98;1.50;;;32.30;8.80;;;;;;5048686;28;20068;-66
2022/04/29 12:28:10;;;;;;;1.67;1.58;;;32.50;9.30;;;;;;5043143;28;20045;-68
2022/04/29 12:36:15;;;;;;;1.52;1.40;;;32.60;8.40;;;;;;5048839;28;20048;-66
2022/04/29 12:38:43;;;;;;;1.42;1.33;;;33.00;9.00;;;;;;5048234;28;20094;-67
2022/04/29 12:41:27;;;;;;;2.15;1.95;;;33.20;9.50;;;;;;5048050;28;20031;-66
2022/04/29 12:44:05;;;;;;;1.95;1.48;;;33.80;9.30;;;;;;5048360;28;20029;-67
2022/04/29 12:46:31;;;;;;;2.30;1.95;;;32.70;7.50;;;;;;5048543;28;20037;-66
2022/04/29 12:48:56;;;;;;;2.83;1.60;;;33.40;8.30;;;;;;5048152;28;20319;-66
2022/04/29 12:51:36;;;;;;;1.40;1.30;;;33.50;8.10;;;;;;5048205;28;20151;-66
2022/04/29 12:54:04;;;;;;;1.77;1.50;;;33.00;8.70;;;;;;5048622;28;20036;-66
2022/04/29 12:56:36;;;;;;;1.85;1.70;;;31.40;8.40;;;;;;5047191;28;20120;-69
2022/04/29 12:59:04;;;;;;;1.48;1.25;;;28.40;9.60;;;;;;5047988;28;20017;-67
2022/04/29 13:01:37;;;;;;;1.55;1.38;;;25.60;11.10;;;;;;5048096;28;20489;-67
2022/04/29 13:04:03;;;;;;;2.47;1.75;;;26.00;13.50;;;;;;5048027;28;20453;-68
2022/04/29 13:06:29;;;;;;;2.30;1.70;;;26.00;12.30;;;;;;5048506;28;20057;-67
2022/04/29 13:08:56;;;;;;;2.17;1.70;;;27.30;12.20;;;;;;5047694;28;20071;-67
2022/04/29 13:11:22;;;;;;;1.40;1.30;;;28.50;11.50;;;;;;5047303;28;20041;-68
2022/04/29 13:13:49;;;;;;;1.40;1.30;;;28.90;12.60;;;;;;5047533;28;20083;-67
2022/04/29 13:16:16;;;;;;;1.63;1.42;;;28.00;11.20;;;;;;5047799;28;20515;-67
2022/04/29 13:18:43;;;;;;;3.35;1.70;;;26.50;12.00;;;;;;5047740;28;20071;-67
2022/04/29 13:21:09;;;;;;;1.98;1.73;;;26.40;12.10;;;;;;5047653;28;20037;-67
2022/04/29 13:23:40;;;;;;;2.78;1.67;;;25.20;13.40;;;;;;5047847;28;20063;-68
2022/04/29 13:26:06;;;;;;;2.60;1.73;;;24.00;14.30;;;;;;5047321;28;20037;-69
2022/04/29 13:28:32;;;;;;;2.13;1.80;;;23.10;16.30;;;;;;5047464;28;20159;-67
2022/04/29 13:31:00;;;;;;;2.42;1.85;;;22.90;16.80;;;;;;5038973;28;20059;-70